sensor_id;sensor_type;location;lat;lon;timestamp;pressure;altitude;pressure_sealevel;temperature;humidity
34370;BME280;20635;55.812;37.560;2022-08-25T00:01:18;100588.91;;;26.74;45.44
34370;BME280;20635;55.812;37.560;2022-08-25T00:03:46;100583.59;;;26.73;45.34
34370;BME280;20635;55.812;37.560;2022-08-25T00:06:13;100580.78;;;26.73;45.07
34370;BME280;20635;55.812;37.560;2022-08-25T00:08:40;100589.22;;;26.73;45.04
34370;BME280;20635;55.812;37.560;2022-08-25T00:11:08;100585.59;;;26.72;44.97
34370;BME280;20635;55.812;37.560;2022-08-25T00:13:39;100583.94;;;26.71;45.08
34370;BME280;20635;55.812;37.560;2022-08-25T00:16:07;100580.31;;;26.71;45.30
34370;BME280;20635;55.812;37.560;2022-08-25T00:18:33;100571.00;;;26.70;45.42
34370;BME280;20635;55.812;37.560;2022-08-25T00:20:59;100576.63;;;26.70;45.37
34370;BME280;20635;55.812;37.560;2022-08-25T00:23:24;100578.63;;;26.70;45.36
34370;BME280;20635;55.812;37.560;2022-08-25T00:25:50;100572.16;;;26.69;45.21
34370;BME280;20635;55.812;37.560;2022-08-25T00:28:16;100576.97;;;26.69;45.17
34370;BME280;20635;55.812;37.560;2022-08-25T00:30:43;100582.59;;;26.69;45.45
34370;BME280;20635;55.812;37.560;2022-08-25T00:33:09;100571.66;;;26.67;45.63
34370;BME280;20635;55.812;37.560;2022-08-25T00:35:35;100580.94;;;26.68;45.78
34370;BME280;20635;55.812;37.560;2022-08-25T00:38:01;100577.28;;;26.67;45.84
34370;BME280;20635;55.812;37.560;2022-08-25T00:40:27;100574.47;;;26.67;45.65
34370;BME280;20635;55.812;37.560;2022-08-25T00:42:54;100571.97;;;26.66;45.57
34370;BME280;20635;55.812;37.560;2022-08-25T00:45:21;100576.47;;;26.67;45.58
34370;BME280;20635;55.812;37.560;2022-08-25T00:47:47;100571.97;;;26.66;45.73
34370;BME280;20635;55.812;37.560;2022-08-25T00:50:15;100578.44;;;26.66;45.71
34370;BME280;20635;55.812;37.560;2022-08-25T00:52:51;100578.94;;;26.68;45.79
34370;BME280;20635;55.812;37.560;2022-08-25T00:55:37;100573.31;;;26.68;45.91
34370;BME280;20635;55.812;37.560;2022-08-25T00:58:12;100581.25;;;26.66;45.74
34370;BME280;20635;55.812;37.560;2022-08-25T01:00:45;100568.66;;;26.64;45.46
34370;BME280;20635;55.812;37.560;2022-08-25T01:03:11;100572.63;;;26.63;45.59
34370;BME280;20635;55.812;37.560;2022-08-25T01:05:38;100574.63;;;26.62;45.92
34370;BME280;20635;55.812;37.560;2022-08-25T01:08:07;100581.38;;;26.61;45.66
34370;BME280;20635;55.812;37.560;2022-08-25T01:10:35;100575.44;;;26.63;45.69
34370;BME280;20635;55.812;37.560;2022-08-25T01:13:07;100577.09;;;26.64;45.83
34370;BME280;20635;55.812;37.560;2022-08-25T01:15:34;100576.59;;;26.62;45.54
34370;BME280;20635;55.812;37.560;2022-08-25T01:18:00;100570.97;;;26.62;45.72
34370;BME280;20635;55.812;37.560;2022-08-25T01:20:28;100564.81;;;26.60;45.62
34370;BME280;20635;55.812;37.560;2022-08-25T01:22:55;100569.63;;;26.59;45.96
34370;BME280;20635;55.812;37.560;2022-08-25T01:28:16;100566.81;;;26.59;45.74
34370;BME280;20635;55.812;37.560;2022-08-25T01:30:42;100558.72;;;26.58;45.95
34370;BME280;20635;55.812;37.560;2022-08-25T01:33:10;100567.13;;;26.58;45.94
34370;BME280;20635;55.812;37.560;2022-08-25T01:35:36;100569.94;;;26.58;46.07
34370;BME280;20635;55.812;37.560;2022-08-25T01:38:04;100564.63;;;26.56;45.75
34370;BME280;20635;55.812;37.560;2022-08-25T01:40:31;100567.44;;;26.56;45.90
34370;BME280;20635;55.812;37.560;2022-08-25T01:45:38;100565.78;;;26.55;45.82
34370;BME280;20635;55.812;37.560;2022-08-25T01:48:06;100566.63;;;26.55;46.14
34370;BME280;20635;55.812;37.560;2022-08-25T01:50:32;100569.44;;;26.55;46.23
34370;BME280;20635;55.812;37.560;2022-08-25T01:55:28;100563.31;;;26.53;46.02
34370;BME280;20635;55.812;37.560;2022-08-25T01:57:54;100571.75;;;26.53;46.41
34370;BME280;20635;55.812;37.560;2022-08-25T02:00:21;100568.41;;;26.51;46.25
34370;BME280;20635;55.812;37.560;2022-08-25T02:02:47;100568.41;;;26.51;46.35
34370;BME280;20635;55.812;37.560;2022-08-25T02:05:14;100568.41;;;26.51;46.48
34370;BME280;20635;55.812;37.560;2022-08-25T02:07:42;100572.38;;;26.50;46.63
34370;BME280;20635;55.812;37.560;2022-08-25T02:10:11;100575.19;;;26.50;46.70
34370;BME280;20635;55.812;37.560;2022-08-25T02:12:37;100570.72;;;26.49;46.49
34370;BME280;20635;55.812;37.560;2022-08-25T02:15:05;100565.91;;;26.50;46.66
34370;BME280;20635;55.812;37.560;2022-08-25T02:17:33;100575.50;;;26.49;46.81
34370;BME280;20635;55.812;37.560;2022-08-25T02:20:05;100572.38;;;26.50;46.62
34370;BME280;20635;55.812;37.560;2022-08-25T02:22:31;100575.81;;;26.47;47.05
34370;BME280;20635;55.812;37.560;2022-08-25T02:24:57;100571.34;;;26.46;46.84
34370;BME280;20635;55.812;37.560;2022-08-25T02:27:24;100581.44;;;26.47;46.58
34370;BME280;20635;55.812;37.560;2022-08-25T02:29:50;100569.69;;;26.45;46.62
34370;BME280;20635;55.812;37.560;2022-08-25T02:32:18;100573.66;;;26.44;46.61
34370;BME280;20635;55.812;37.560;2022-08-25T02:34:44;100579.28;;;26.44;46.55
34370;BME280;20635;55.812;37.560;2022-08-25T02:37:10;100571.97;;;26.43;46.82
34370;BME280;20635;55.812;37.560;2022-08-25T02:39:37;100569.16;;;26.43;46.57
34370;BME280;20635;55.812;37.560;2022-08-25T02:42:03;100570.28;;;26.42;46.75
34370;BME280;20635;55.812;37.560;2022-08-25T02:44:29;100571.97;;;26.43;46.78
34370;BME280;20635;55.812;37.560;2022-08-25T02:46:56;100571.13;;;26.43;46.66
34370;BME280;20635;55.812;37.560;2022-08-25T02:49:22;100568.31;;;26.43;46.93
34370;BME280;20635;55.812;37.560;2022-08-25T02:51:48;100562.69;;;26.43;46.67
34370;BME280;20635;55.812;37.560;2022-08-25T02:54:14;100570.03;;;26.44;46.79
34370;BME280;20635;55.812;37.560;2022-08-25T02:56:40;100565.50;;;26.43;46.88
34370;BME280;20635;55.812;37.560;2022-08-25T02:59:07;100565.81;;;26.41;47.08
34370;BME280;20635;55.812;37.560;2022-08-25T03:01:33;100572.28;;;26.42;47.03
34370;BME280;20635;55.812;37.560;2022-08-25T03:04:00;100568.63;;;26.41;46.98
34370;BME280;20635;55.812;37.560;2022-08-25T03:06:26;100564.66;;;26.42;47.25
34370;BME280;20635;55.812;37.560;2022-08-25T03:08:53;100566.66;;;26.42;47.25
34370;BME280;20635;55.812;37.560;2022-08-25T03:11:19;100563.00;;;26.41;47.25
34370;BME280;20635;55.812;37.560;2022-08-25T03:13:46;100571.78;;;26.40;47.11
34370;BME280;20635;55.812;37.560;2022-08-25T03:16:15;100565.00;;;26.41;47.11
34370;BME280;20635;55.812;37.560;2022-08-25T03:18:41;100561.34;;;26.40;47.32
34370;BME280;20635;55.812;37.560;2022-08-25T03:21:09;100566.97;;;26.40;47.67
34370;BME280;20635;55.812;37.560;2022-08-25T03:23:36;100567.81;;;26.41;47.31
34370;BME280;20635;55.812;37.560;2022-08-25T03:26:02;100566.16;;;26.40;47.35
34370;BME280;20635;55.812;37.560;2022-08-25T03:28:47;100559.72;;;26.39;47.47
34370;BME280;20635;55.812;37.560;2022-08-25T03:31:13;100567.09;;;26.35;47.67
34370;BME280;20635;55.812;37.560;2022-08-25T03:33:38;100564.59;;;26.34;47.91
34370;BME280;20635;55.812;37.560;2022-08-25T03:36:05;100565.25;;;26.30;47.85
34370;BME280;20635;55.812;37.560;2022-08-25T03:38:32;100563.91;;;26.28;48.09
34370;BME280;20635;55.812;37.560;2022-08-25T03:40:58;100556.94;;;26.25;48.21
34370;BME280;20635;55.812;37.560;2022-08-25T03:43:24;100556.09;;;26.25;48.23
34370;BME280;20635;55.812;37.560;2022-08-25T03:45:50;100565.69;;;26.24;48.19
34370;BME280;20635;55.812;37.560;2022-08-25T03:48:16;100552.28;;;26.21;48.52
34370;BME280;20635;55.812;37.560;2022-08-25T03:50:45;100549.78;;;26.19;48.52
34370;BME280;20635;55.812;37.560;2022-08-25T03:53:11;100552.91;;;26.18;48.71
34370;BME280;20635;55.812;37.560;2022-08-25T03:55:37;100553.25;;;26.16;48.89
34370;BME280;20635;55.812;37.560;2022-08-25T03:58:03;100544.28;;;26.14;49.25
34370;BME280;20635;55.812;37.560;2022-08-25T04:00:29;100550.22;;;26.13;49.29
34370;BME280;20635;55.812;37.560;2022-08-25T04:02:55;100551.88;;;26.14;49.24
34370;BME280;20635;55.812;37.560;2022-08-25T04:05:21;100548.59;;;26.12;49.44
34370;BME280;20635;55.812;37.560;2022-08-25T04:07:47;100547.72;;;26.11;49.51
34370;BME280;20635;55.812;37.560;2022-08-25T04:10:13;100546.91;;;26.11;49.96
34370;BME280;20635;55.812;37.560;2022-08-25T04:12:39;100545.25;;;26.10;50.22
34370;BME280;20635;55.812;37.560;2022-08-25T04:15:07;100545.25;;;26.10;50.35
34370;BME280;20635;55.812;37.560;2022-08-25T04:17:37;100542.44;;;26.10;50.35
34370;BME280;20635;55.812;37.560;2022-08-25T04:20:06;100550.84;;;26.10;50.53
34370;BME280;20635;55.812;37.560;2022-08-25T04:22:33;100549.19;;;26.09;50.59
34370;BME280;20635;55.812;37.560;2022-08-25T04:24:59;100535.44;;;26.07;50.70
34370;BME280;20635;55.812;37.560;2022-08-25T04:27:25;100534.34;;;26.08;50.92
34370;BME280;20635;55.812;37.560;2022-08-25T04:29:51;100535.16;;;26.09;50.75
34370;BME280;20635;55.812;37.560;2022-08-25T04:32:17;100535.44;;;26.07;50.75
34370;BME280;20635;55.812;37.560;2022-08-25T04:34:42;100527.88;;;26.08;50.59
34370;BME280;20635;55.812;37.560;2022-08-25T04:37:08;100529.22;;;26.10;50.75
34370;BME280;20635;55.812;37.560;2022-08-25T04:39:34;100527.22;;;26.11;50.75
34370;BME280;20635;55.812;37.560;2022-08-25T04:42:01;100532.84;;;26.11;50.86
34370;BME280;20635;55.812;37.560;2022-08-25T04:44:27;100535.66;;;26.11;50.82
34370;BME280;20635;55.812;37.560;2022-08-25T04:46:54;100535.97;;;26.09;51.15
34370;BME280;20635;55.812;37.560;2022-08-25T04:49:20;100528.38;;;26.10;51.23
34370;BME280;20635;55.812;37.560;2022-08-25T04:51:46;100532.56;;;26.12;52.03
34370;BME280;20635;55.812;37.560;2022-08-25T04:54:14;100521.81;;;26.14;51.70
34370;BME280;20635;55.812;37.560;2022-08-25T04:56:42;100530.78;;;26.16;51.48
34370;BME280;20635;55.812;37.560;2022-08-25T04:59:12;100537.38;;;26.20;51.39
34370;BME280;20635;55.812;37.560;2022-08-25T05:01:39;100532.28;;;26.22;51.27
34370;BME280;20635;55.812;37.560;2022-08-25T05:04:08;100529.16;;;26.24;51.34
34370;BME280;20635;55.812;37.560;2022-08-25T05:06:34;100528.53;;;26.27;51.12
34370;BME280;20635;55.812;37.560;2022-08-25T05:09:00;100524.56;;;26.28;51.28
34370;BME280;20635;55.812;37.560;2022-08-25T05:11:27;100527.03;;;26.29;50.93
34370;BME280;20635;55.812;37.560;2022-08-25T05:13:54;100521.94;;;26.31;50.88
34370;BME280;20635;55.812;37.560;2022-08-25T05:16:22;100524.44;;;26.33;50.67
34370;BME280;20635;55.812;37.560;2022-08-25T05:18:48;100524.97;;;26.35;50.63
34370;BME280;20635;55.812;37.560;2022-08-25T05:21:18;100519.84;;;26.37;50.45
34370;BME280;20635;55.812;37.560;2022-08-25T05:23:45;100517.84;;;26.38;50.27
34370;BME280;20635;55.812;37.560;2022-08-25T05:26:14;100508.25;;;26.39;49.99
34370;BME280;20635;55.812;37.560;2022-08-25T05:28:40;100521.69;;;26.42;50.06
34370;BME280;20635;55.812;37.560;2022-08-25T05:31:09;100513.81;;;26.44;50.28
34370;BME280;20635;55.812;37.560;2022-08-25T05:33:36;100509.00;;;26.44;49.88
34370;BME280;20635;55.812;37.560;2022-08-25T05:36:03;100512.31;;;26.46;49.87
34370;BME280;20635;55.812;37.560;2022-08-25T05:38:29;100514.50;;;26.49;49.68
34370;BME280;20635;55.812;37.560;2022-08-25T05:41:03;100516.66;;;26.52;49.63
34370;BME280;20635;55.812;37.560;2022-08-25T05:43:30;100509.38;;;26.51;48.99
34370;BME280;20635;55.812;37.560;2022-08-25T05:45:57;100514.69;;;26.53;49.16
34370;BME280;20635;55.812;37.560;2022-08-25T05:48:24;100509.91;;;26.53;48.54
34370;BME280;20635;55.812;37.560;2022-08-25T05:50:56;100513.22;;;26.55;48.53
34370;BME280;20635;55.812;37.560;2022-08-25T05:53:23;100513.22;;;26.55;48.38
34370;BME280;20635;55.812;37.560;2022-08-25T05:55:51;100507.59;;;26.55;48.00
34370;BME280;20635;55.812;37.560;2022-08-25T05:58:17;100501.13;;;26.55;47.83
34370;BME280;20635;55.812;37.560;2022-08-25T06:00:43;100501.97;;;26.55;47.61
34370;BME280;20635;55.812;37.560;2022-08-25T06:03:09;100499.47;;;26.54;47.33
34370;BME280;20635;55.812;37.560;2022-08-25T06:05:35;100505.94;;;26.54;47.63
34370;BME280;20635;55.812;37.560;2022-08-25T06:08:01;100497.16;;;26.56;47.35
34370;BME280;20635;55.812;37.560;2022-08-25T06:10:27;100504.78;;;26.55;47.15
34370;BME280;20635;55.812;37.560;2022-08-25T06:12:53;100502.78;;;26.56;46.97
34370;BME280;20635;55.812;37.560;2022-08-25T06:15:21;100498.81;;;26.57;47.65
34370;BME280;20635;55.812;37.560;2022-08-25T06:17:49;100507.25;;;26.57;47.57
34370;BME280;20635;55.812;37.560;2022-08-25T06:20:20;100506.63;;;26.60;50.08
34370;BME280;20635;55.812;37.560;2022-08-25T06:22:47;100502.66;;;26.61;50.19
34370;BME280;20635;55.812;37.560;2022-08-25T06:25:16;100505.16;;;26.63;50.51
34370;BME280;20635;55.812;37.560;2022-08-25T06:27:43;100505.97;;;26.63;50.71
34370;BME280;20635;55.812;37.560;2022-08-25T06:30:12;100504.50;;;26.66;49.09
34370;BME280;20635;55.812;37.560;2022-08-25T06:32:41;100508.16;;;26.66;47.98
34370;BME280;20635;55.812;37.560;2022-08-25T06:35:10;100501.38;;;26.67;46.94
34370;BME280;20635;55.812;37.560;2022-08-25T06:37:37;100501.06;;;26.69;47.59
34370;BME280;20635;55.812;37.560;2022-08-25T06:40:05;100499.88;;;26.70;47.29
34370;BME280;20635;55.812;37.560;2022-08-25T06:42:32;100498.75;;;26.71;47.76
34370;BME280;20635;55.812;37.560;2022-08-25T06:44:57;100493.63;;;26.73;46.69
34370;BME280;20635;55.812;37.560;2022-08-25T06:47:23;100497.28;;;26.73;46.87
34370;BME280;20635;55.812;37.560;2022-08-25T06:49:49;100491.31;;;26.75;47.00
34370;BME280;20635;55.812;37.560;2022-08-25T06:52:15;100491.84;;;26.77;45.94
34370;BME280;20635;55.812;37.560;2022-08-25T06:54:41;100490.19;;;26.76;45.49
34370;BME280;20635;55.812;37.560;2022-08-25T06:57:07;100491.50;;;26.78;45.31
34370;BME280;20635;55.812;37.560;2022-08-25T06:59:34;100487.53;;;26.79;45.31
34370;BME280;20635;55.812;37.560;2022-08-25T07:02:01;100484.41;;;26.81;46.06
34370;BME280;20635;55.812;37.560;2022-08-25T07:04:28;100491.34;;;26.84;45.04
34370;BME280;20635;55.812;37.560;2022-08-25T07:06:54;100490.22;;;26.85;45.27
34370;BME280;20635;55.812;37.560;2022-08-25T07:09:20;100486.75;;;26.88;45.13
34370;BME280;20635;55.812;37.560;2022-08-25T07:11:46;100483.94;;;26.88;45.37
34370;BME280;20635;55.812;37.560;2022-08-25T07:14:14;100488.41;;;26.89;45.96
34370;BME280;20635;55.812;37.560;2022-08-25T07:16:42;100490.09;;;26.90;46.22
34370;BME280;20635;55.812;37.560;2022-08-25T07:19:09;100488.09;;;26.90;46.08
34370;BME280;20635;55.812;37.560;2022-08-25T07:21:36;100477.66;;;26.91;46.25
34370;BME280;20635;55.812;37.560;2022-08-25T07:24:08;100482.13;;;26.92;46.16
34370;BME280;20635;55.812;37.560;2022-08-25T07:26:35;100476.16;;;26.93;46.32
34370;BME280;20635;55.812;37.560;2022-08-25T07:29:07;100481.81;;;26.93;46.46
34370;BME280;20635;55.812;37.560;2022-08-25T07:31:34;100473.38;;;26.93;46.41
34370;BME280;20635;55.812;37.560;2022-08-25T07:33:59;100475.34;;;26.93;46.58
34370;BME280;20635;55.812;37.560;2022-08-25T07:36:44;100477.84;;;26.94;46.64
34370;BME280;20635;55.812;37.560;2022-08-25T07:39:10;100475.03;;;26.94;46.87
34370;BME280;20635;55.812;37.560;2022-08-25T07:41:38;100477.53;;;26.96;46.85
34370;BME280;20635;55.812;37.560;2022-08-25T07:44:05;100466.59;;;26.94;46.94
34370;BME280;20635;55.812;37.560;2022-08-25T07:46:31;100476.69;;;26.95;46.98
34370;BME280;20635;55.812;37.560;2022-08-25T07:48:57;100472.72;;;26.96;47.00
34370;BME280;20635;55.812;37.560;2022-08-25T07:51:23;100464.28;;;26.96;47.23
34370;BME280;20635;55.812;37.560;2022-08-25T07:53:49;100474.38;;;26.97;47.59
34370;BME280;20635;55.812;37.560;2022-08-25T07:56:15;100469.56;;;26.98;47.51
34370;BME280;20635;55.812;37.560;2022-08-25T07:58:42;100465.63;;;26.99;47.54
34370;BME280;20635;55.812;37.560;2022-08-25T08:01:16;100463.31;;;27.01;47.42
34370;BME280;20635;55.812;37.560;2022-08-25T08:03:43;100458.03;;;26.99;47.39
34370;BME280;20635;55.812;37.560;2022-08-25T08:06:11;100461.66;;;27.00;47.25
34370;BME280;20635;55.812;37.560;2022-08-25T08:08:39;100452.38;;;26.99;47.09
34370;BME280;20635;55.812;37.560;2022-08-25T08:11:16;100448.91;;;27.02;47.16
34370;BME280;20635;55.812;37.560;2022-08-25T08:13:44;100450.41;;;27.00;47.02
34370;BME280;20635;55.812;37.560;2022-08-25T08:16:11;100447.25;;;27.01;46.96
34370;BME280;20635;55.812;37.560;2022-08-25T08:18:37;100440.81;;;27.01;46.93
34370;BME280;20635;55.812;37.560;2022-08-25T08:21:03;100450.91;;;27.02;47.31
34370;BME280;20635;55.812;37.560;2022-08-25T08:23:29;100437.16;;;27.00;47.22
34370;BME280;20635;55.812;37.560;2022-08-25T08:25:55;100434.84;;;27.02;46.93
34370;BME280;20635;55.812;37.560;2022-08-25T08:28:21;100439.34;;;27.03;47.22
34370;BME280;20635;55.812;37.560;2022-08-25T08:30:47;100438.50;;;27.03;46.88
34370;BME280;20635;55.812;37.560;2022-08-25T08:33:13;100430.38;;;27.01;46.99
34370;BME280;20635;55.812;37.560;2022-08-25T08:35:40;100430.91;;;27.03;46.88
34370;BME280;20635;55.812;37.560;2022-08-25T08:38:06;100425.28;;;27.03;46.98
34370;BME280;20635;55.812;37.560;2022-08-25T08:40:41;100422.94;;;27.05;47.13
34370;BME280;20635;55.812;37.560;2022-08-25T08:43:30;100425.75;;;27.05;47.02
34370;BME280;20635;55.812;37.560;2022-08-25T08:45:56;100426.59;;;27.06;46.76
34370;BME280;20635;55.812;37.560;2022-08-25T08:51:50;100427.63;;;27.10;46.77
34370;BME280;20635;55.812;37.560;2022-08-25T08:54:22;100432.41;;;27.10;46.71
34370;BME280;20635;55.812;37.560;2022-08-25T08:57:03;100417.19;;;27.11;46.84
34370;BME280;20635;55.812;37.560;2022-08-25T08:59:40;100420.84;;;27.11;46.96
34370;BME280;20635;55.812;37.560;2022-08-25T09:02:12;100416.38;;;27.10;47.03
34370;BME280;20635;55.812;37.560;2022-08-25T09:04:46;100417.19;;;27.11;46.99
34370;BME280;20635;55.812;37.560;2022-08-25T09:07:20;100411.25;;;27.12;47.00
34370;BME280;20635;55.812;37.560;2022-08-25T09:09:47;100417.19;;;27.11;47.06
34370;BME280;20635;55.812;37.560;2022-08-25T09:18:22;100401.31;;;27.15;46.82
34370;BME280;20635;55.812;37.560;2022-08-25T09:23:52;100401.97;;;27.20;46.61
34370;BME280;20635;55.812;37.560;2022-08-25T09:26:38;100403.16;;;27.19;46.93
34370;BME280;20635;55.812;37.560;2022-08-25T09:29:13;100398.19;;;27.16;46.76
34370;BME280;20635;55.812;37.560;2022-08-25T09:31:40;100400.50;;;27.23;46.65
34370;BME280;20635;55.812;37.560;2022-08-25T09:34:12;100395.53;;;27.20;46.73
34370;BME280;20635;55.812;37.560;2022-08-25T09:36:41;100387.78;;;27.17;46.60
34370;BME280;20635;55.812;37.560;2022-08-25T09:39:07;100390.59;;;27.17;46.65
34370;BME280;20635;55.812;37.560;2022-08-25T09:44:04;100381.31;;;27.16;46.66
34370;BME280;20635;55.812;37.560;2022-08-25T09:46:53;100391.91;;;27.19;46.78
34370;BME280;20635;55.812;37.560;2022-08-25T09:49:20;100391.06;;;27.19;46.50
34370;BME280;20635;55.812;37.560;2022-08-25T09:51:46;100384.63;;;27.18;46.65
34370;BME280;20635;55.812;37.560;2022-08-25T09:56:59;100382.47;;;27.24;46.58
34370;BME280;20635;55.812;37.560;2022-08-25T09:59:34;100373.19;;;27.23;46.55
34370;BME280;20635;55.812;37.560;2022-08-25T10:02:05;100376.34;;;27.22;46.86
34370;BME280;20635;55.812;37.560;2022-08-25T10:04:46;100365.09;;;27.22;46.68
34370;BME280;20635;55.812;37.560;2022-08-25T10:07:38;100370.56;;;27.27;46.54
34370;BME280;20635;55.812;37.560;2022-08-25T10:10:22;100374.53;;;27.26;46.52
34370;BME280;20635;55.812;37.560;2022-08-25T10:12:49;100372.84;;;27.25;46.54
34370;BME280;20635;55.812;37.560;2022-08-25T10:17:44;100365.28;;;27.25;46.51
34370;BME280;20635;55.812;37.560;2022-08-25T10:22:38;100363.75;;;27.28;46.21
34370;BME280;20635;55.812;37.560;2022-08-25T10:25:09;100363.44;;;27.29;46.25
34370;BME280;20635;55.812;37.560;2022-08-25T10:38:41;100358.50;;;27.35;46.19
34370;BME280;20635;55.812;37.560;2022-08-25T10:41:25;100355.00;;;27.38;46.24
34370;BME280;20635;55.812;37.560;2022-08-25T10:49:48;100337.78;;;27.40;46.48
34370;BME280;20635;55.812;37.560;2022-08-25T10:55:25;100329.66;;;27.47;46.07
34370;BME280;20635;55.812;37.560;2022-08-25T10:58:08;100330.50;;;27.47;46.33
34370;BME280;20635;55.812;37.560;2022-08-25T11:00:53;100326.53;;;27.48;45.98
34370;BME280;20635;55.812;37.560;2022-08-25T11:06:07;100319.75;;;27.49;46.31
34370;BME280;20635;55.812;37.560;2022-08-25T11:08:42;100311.78;;;27.51;46.26
34370;BME280;20635;55.812;37.560;2022-08-25T11:16:35;100312.59;;;27.52;45.94
34370;BME280;20635;55.812;37.560;2022-08-25T11:27:15;100297.38;;;27.53;46.24
34370;BME280;20635;55.812;37.560;2022-08-25T11:30:09;100292.25;;;27.55;46.30
34370;BME280;20635;55.812;37.560;2022-08-25T11:32:36;100293.06;;;27.55;46.00
34370;BME280;20635;55.812;37.560;2022-08-25T11:35:10;100294.41;;;27.58;46.20
34370;BME280;20635;55.812;37.560;2022-08-25T11:40:40;100286.25;;;27.65;45.88
34370;BME280;20635;55.812;37.560;2022-08-25T11:43:27;100285.13;;;27.66;45.69
34370;BME280;20635;55.812;37.560;2022-08-25T11:51:45;100277.16;;;27.77;45.91
34370;BME280;20635;55.812;37.560;2022-08-25T11:57:02;100280.28;;;27.84;45.85
34370;BME280;20635;55.812;37.560;2022-08-25T12:02:45;100269.31;;;27.91;45.71
34370;BME280;20635;55.812;37.560;2022-08-25T12:10:23;100265.66;;;27.99;45.39
34370;BME280;20635;55.812;37.560;2022-08-25T12:12:57;100261.31;;;28.02;45.52
34370;BME280;20635;55.812;37.560;2022-08-25T12:23:35;100258.19;;;28.03;nan
34370;BME280;20635;55.812;37.560;2022-08-25T12:31:51;100249.22;;;28.01;45.45
34370;BME280;20635;55.812;37.560;2022-08-25T12:37:25;100253.88;;;27.97;45.52
34370;BME280;20635;55.812;37.560;2022-08-25T12:40:01;100240.97;;;27.96;45.55
34370;BME280;20635;55.812;37.560;2022-08-25T12:42:38;100247.44;;;27.97;45.15
34370;BME280;20635;55.812;37.560;2022-08-25T12:47:40;100237.31;;;28.04;45.34
34370;BME280;20635;55.812;37.560;2022-08-25T12:50:34;100230.50;;;28.05;45.24
34370;BME280;20635;55.812;37.560;2022-08-25T12:56:00;100234.28;;;28.10;45.32
34370;BME280;20635;55.812;37.560;2022-08-25T13:06:54;100219.03;;;28.11;45.03
34370;BME280;20635;55.812;37.560;2022-08-25T13:12:23;100215.38;;;28.10;45.30
34370;BME280;20635;55.812;37.560;2022-08-25T13:14:53;100210.94;;;28.09;45.21
34370;BME280;20635;55.812;37.560;2022-08-25T13:17:29;100215.06;;;28.12;45.13
34370;BME280;20635;55.812;37.560;2022-08-25T13:22:44;100209.91;;;28.14;45.00
34370;BME280;20635;55.812;37.560;2022-08-25T13:25:20;100213.69;;;28.18;44.97
34370;BME280;20635;55.812;37.560;2022-08-25T13:27:55;100213.69;;;28.18;45.02
34370;BME280;20635;55.812;37.560;2022-08-25T13:30:34;100205.25;;;28.18;44.91
34370;BME280;20635;55.812;37.560;2022-08-25T13:33:21;100205.25;;;28.18;45.34
34370;BME280;20635;55.812;37.560;2022-08-25T13:35:53;100195.00;;;28.13;45.14
34370;BME280;20635;55.812;37.560;2022-08-25T13:38:41;100199.81;;;28.13;45.38
34370;BME280;20635;55.812;37.560;2022-08-25T13:41:07;100195.34;;;28.12;45.29
34370;BME280;20635;55.812;37.560;2022-08-25T13:43:36;100203.28;;;28.10;45.27
34370;BME280;20635;55.812;37.560;2022-08-25T13:46:03;100210.56;;;28.11;45.50
34370;BME280;20635;55.812;37.560;2022-08-25T13:48:36;100202.13;;;28.11;45.24
34370;BME280;20635;55.812;37.560;2022-08-25T13:51:21;100193.00;;;28.14;45.42
34370;BME280;20635;55.812;37.560;2022-08-25T13:54:00;100198.84;;;28.09;45.26
34370;BME280;20635;55.812;37.560;2022-08-25T13:56:34;100192.03;;;28.10;45.02
34370;BME280;20635;55.812;37.560;2022-08-25T13:59:04;100190.72;;;28.07;45.06
34370;BME280;20635;55.812;37.560;2022-08-25T14:01:33;100190.38;;;28.09;45.17
34370;BME280;20635;55.812;37.560;2022-08-25T14:05:02;100183.38;;;28.15;45.45
34370;BME280;20635;55.812;37.560;2022-08-25T14:10:04;100184.50;;;28.22;44.88
34370;BME280;20635;55.812;37.560;2022-08-25T14:12:37;100174.53;;;28.25;45.27
34370;BME280;20635;55.812;37.560;2022-08-25T14:17:35;100169.88;;;28.29;44.79
34370;BME280;20635;55.812;37.560;2022-08-25T14:20:02;100166.72;;;28.30;45.12
34370;BME280;20635;55.812;37.560;2022-08-25T14:22:28;100163.91;;;28.30;45.26
34370;BME280;20635;55.812;37.560;2022-08-25T14:24:54;100165.91;;;28.30;44.83
34370;BME280;20635;55.812;37.560;2022-08-25T14:27:20;100165.91;;;28.30;45.20
34370;BME280;20635;55.812;37.560;2022-08-25T14:29:46;100165.91;;;28.30;45.19
34370;BME280;20635;55.812;37.560;2022-08-25T14:32:13;100159.28;;;28.26;45.11
34370;BME280;20635;55.812;37.560;2022-08-25T14:34:41;100163.75;;;28.27;44.66
34370;BME280;20635;55.812;37.560;2022-08-25T14:37:18;100150.50;;;28.27;45.33
34370;BME280;20635;55.812;37.560;2022-08-25T14:39:45;100159.97;;;28.23;45.20
34370;BME280;20635;55.812;37.560;2022-08-25T14:42:11;100151.88;;;28.21;45.09
34370;BME280;20635;55.812;37.560;2022-08-25T14:44:38;100153.00;;;28.20;45.24
34370;BME280;20635;55.812;37.560;2022-08-25T14:47:04;100159.00;;;28.19;45.04
34370;BME280;20635;55.812;37.560;2022-08-25T14:49:35;100153.34;;;28.19;45.25
34370;BME280;20635;55.812;37.560;2022-08-25T14:52:15;100143.72;;;28.20;45.29
34370;BME280;20635;55.812;37.560;2022-08-25T14:54:42;100139.47;;;28.14;45.08
34370;BME280;20635;55.812;37.560;2022-08-25T14:57:09;100144.28;;;28.13;45.01
34370;BME280;20635;55.812;37.560;2022-08-25T14:59:35;100148.28;;;28.12;45.14